Time;durP1;ratioP1;P1;durP2;ratioP2;P2;SDS_P1;SDS_P2;PMS_P1;PMS_P2;Temp;Humidity;BMP_temperature;BMP_pressure;BME280_temperature;BME280_humidity;BME280_pressure;Samples;Min_cycle;Max_cycle;Signal;HPM_P1;HPM_P2
2023/01/13 00:02:07;;;;;;;22.98;3.38;;;8.00;99.90;;;;;;4998171;28;20037;-65
2023/01/13 00:04:33;;;;;;;24.92;3.90;;;7.90;99.90;;;;;;5013367;28;20049;-67
2023/01/13 00:06:59;;;;;;;21.23;3.78;;;7.80;99.90;;;;;;5023936;28;20049;-64
2023/01/13 00:09:24;;;;;;;24.90;4.03;;;7.80;99.90;;;;;;5005181;28;20046;-67
2023/01/13 00:11:50;;;;;;;21.73;3.35;;;7.80;99.90;;;;;;5019044;28;20405;-68
2023/01/13 00:14:16;;;;;;;19.05;4.60;;;7.80;99.90;;;;;;5017124;28;20417;-64
2023/01/13 00:16:42;;;;;;;27.27;4.05;;;7.70;99.90;;;;;;5019080;28;20045;-64
2023/01/13 00:19:08;;;;;;;28.23;4.05;;;7.80;99.90;;;;;;5027660;28;20044;-66
2023/01/13 00:21:34;;;;;;;19.60;4.22;;;7.70;99.90;;;;;;5011351;28;20069;-64
2023/01/13 00:24:00;;;;;;;22.70;4.10;;;7.60;99.90;;;;;;5024742;28;22492;-65
2023/01/13 00:26:29;;;;;;;20.17;3.90;;;7.50;99.90;;;;;;5014469;28;20037;-65
2023/01/13 00:28:57;;;;;;;25.15;3.53;;;7.60;99.90;;;;;;5013592;28;20371;-66
2023/01/13 00:31:22;;;;;;;24.70;4.00;;;7.50;99.90;;;;;;5022541;28;20140;-65
2023/01/13 00:33:49;;;;;;;23.95;4.55;;;7.50;99.90;;;;;;5020210;28;20612;-65
2023/01/13 00:36:17;;;;;;;22.65;3.63;;;7.40;99.90;;;;;;5016868;28;20588;-64
2023/01/13 00:38:44;;;;;;;19.92;4.10;;;7.40;99.90;;;;;;5011842;28;20600;-64
2023/01/13 00:41:12;;;;;;;31.13;4.43;;;7.40;99.90;;;;;;5023982;28;20045;-64
2023/01/13 00:43:39;;;;;;;27.58;4.43;;;7.40;99.90;;;;;;5023519;28;20048;-63
2023/01/13 00:46:07;;;;;;;27.35;4.63;;;7.30;99.90;;;;;;5023101;28;20393;-64
2023/01/13 00:48:33;;;;;;;35.97;5.15;;;7.40;99.90;;;;;;5018714;28;20038;-66
2023/01/13 00:51:08;;;;;;;23.90;4.60;;;7.30;99.90;;;;;;5027469;28;20497;-63
2023/01/13 00:53:44;;;;;;;27.58;6.05;;;7.20;99.90;;;;;;5024280;28;20367;-65
2023/01/13 00:56:14;;;;;;;29.77;5.95;;;7.30;99.90;;;;;;5027685;28;20038;-65
2023/01/13 00:58:40;;;;;;;22.17;4.35;;;7.30;99.90;;;;;;5016153;28;20099;-65
2023/01/13 01:01:08;;;;;;;34.90;5.05;;;7.30;99.90;;;;;;5015056;28;20034;-66
2023/01/13 01:03:34;;;;;;;32.40;4.95;;;7.20;99.90;;;;;;5020999;28;20049;-65
2023/01/13 01:06:26;;;;;;;30.08;5.40;;;7.20;99.90;;;;;;5017485;28;20136;-66
2023/01/13 01:08:53;;;;;;;34.50;6.00;;;7.20;99.90;;;;;;5015540;28;20068;-66
2023/01/13 01:11:26;;;;;;;29.08;4.80;;;7.20;99.90;;;;;;5002741;28;20156;-65
2023/01/13 01:13:54;;;;;;;32.78;5.05;;;7.20;99.90;;;;;;5000581;28;20041;-66
2023/01/13 01:16:22;;;;;;;31.67;4.88;;;7.10;99.90;;;;;;5014620;28;20316;-66
2023/01/13 01:18:50;;;;;;;28.50;4.82;;;7.10;99.90;;;;;;5025316;28;20129;-67
2023/01/13 01:21:17;;;;;;;25.90;5.55;;;7.00;99.90;;;;;;5018550;28;20432;-66
2023/01/13 01:23:43;;;;;;;28.50;4.60;;;7.10;99.90;;;;;;5008377;28;20111;-65
2023/01/13 01:26:15;;;;;;;34.33;5.28;;;7.10;99.90;;;;;;5008789;28;20538;-65
2023/01/13 01:28:41;;;;;;;42.88;5.25;;;7.10;99.90;;;;;;5018069;28;20247;-65
2023/01/13 01:31:09;;;;;;;28.60;4.43;;;7.10;99.90;;;;;;5028639;28;20041;-64
2023/01/13 01:33:34;;;;;;;23.75;4.63;;;7.10;99.90;;;;;;5015189;28;20065;-64
2023/01/13 01:36:01;;;;;;;26.83;4.90;;;7.20;99.90;;;;;;5014267;28;20476;-64
2023/01/13 01:38:27;;;;;;;29.75;5.38;;;7.20;99.90;;;;;;5024720;28;20042;-66
2023/01/13 01:40:52;;;;;;;28.90;4.90;;;7.20;99.90;;;;;;5020730;28;20358;-64
2023/01/13 01:46:05;;;;;;;26.08;4.53;;;7.20;99.90;;;;;;5020208;28;20397;-66
2023/01/13 01:48:39;;;;;;;30.75;4.45;;;7.10;99.90;;;;;;5025374;28;20057;-65
2023/01/13 01:51:11;;;;;;;27.58;3.53;;;7.10;99.90;;;;;;5027423;28;20040;-64
2023/01/13 01:53:38;;;;;;;18.25;3.78;;;7.20;99.90;;;;;;5021676;28;20037;-64
2023/01/13 01:56:04;;;;;;;21.30;4.28;;;7.20;99.90;;;;;;5032478;28;20041;-64
2023/01/13 01:58:41;;;;;;;24.60;4.10;;;7.30;99.90;;;;;;5024118;28;20041;-65
2023/01/13 02:01:07;;;;;;;25.17;4.30;;;7.20;99.90;;;;;;5016503;28;20041;-64
2023/01/13 02:03:38;;;;;;;24.15;4.18;;;7.20;99.90;;;;;;5023464;28;20042;-64
2023/01/13 02:06:04;;;;;;;18.23;3.35;;;7.20;99.90;;;;;;5021758;28;20588;-64
2023/01/13 02:08:29;;;;;;;26.40;4.18;;;7.20;99.90;;;;;;5023143;28;20148;-64
2023/01/13 02:10:55;;;;;;;21.23;4.45;;;7.20;99.90;;;;;;5015527;28;20754;-65
2023/01/13 02:13:21;;;;;;;26.30;4.85;;;7.20;99.90;;;;;;5013549;28;20045;-63
2023/01/13 02:16:13;;;;;;;31.90;4.20;;;7.30;99.90;;;;;;5020833;28;20033;-66
2023/01/13 02:18:52;;;;;;;26.15;3.90;;;7.30;99.90;;;;;;5019285;28;20045;-64
2023/01/13 02:21:36;;;;;;;28.55;4.85;;;7.30;99.90;;;;;;5019313;28;20056;-66
2023/01/13 02:24:52;;;;;;;21.27;4.00;;;7.30;99.90;;;;;;5014756;28;20046;-65
2023/01/13 02:27:20;;;;;;;20.20;3.90;;;7.30;99.90;;;;;;4984492;28;20054;-65
2023/01/13 02:32:49;;;;;;;26.73;5.35;;;7.20;99.90;;;;;;5025314;28;20481;-64
2023/01/13 02:35:49;;;;;;;26.05;4.10;;;7.40;99.90;;;;;;5027159;28;20044;-66
2023/01/13 02:38:19;;;;;;;20.40;4.18;;;7.30;99.90;;;;;;5015018;28;20046;-63
2023/01/13 02:44:05;;;;;;;19.73;4.15;;;7.20;99.90;;;;;;5027164;28;20437;-65
2023/01/13 02:44:09;;;;;;;31.55;5.00;;;7.20;99.90;;;;;;5024399;28;20127;-65
2023/01/13 02:47:05;;;;;;;33.35;4.40;;;7.30;99.90;;;;;;5025057;28;20415;-64
2023/01/13 02:49:36;;;;;;;26.15;4.13;;;7.40;99.90;;;;;;5020471;28;20147;-66
2023/01/13 02:52:33;;;;;;;19.48;3.88;;;7.40;99.90;;;;;;5027087;28;20053;-66
2023/01/13 02:55:07;;;;;;;24.38;4.25;;;7.30;99.90;;;;;;5011647;28;20046;-66
2023/01/13 02:57:36;;;;;;;28.20;4.25;;;7.50;99.90;;;;;;5018606;28;20037;-65
2023/01/13 03:00:05;;;;;;;33.17;4.47;;;7.50;99.90;;;;;;5017371;28;20049;-65
2023/01/13 03:02:32;;;;;;;27.02;4.93;;;7.50;99.90;;;;;;5018449;28;20045;-66
2023/01/13 03:04:59;;;;;;;18.35;4.30;;;7.40;99.90;;;;;;5007766;28;20052;-65
2023/01/13 03:07:40;;;;;;;30.95;5.20;;;7.40;99.90;;;;;;5026099;28;20400;-64
2023/01/13 03:10:21;;;;;;;26.02;3.83;;;7.50;99.90;;;;;;5019581;28;20053;-65
2023/01/13 03:13:01;;;;;;;27.13;4.88;;;7.60;99.90;;;;;;5018276;28;20044;-68
2023/01/13 03:15:46;;;;;;;31.02;3.75;;;7.60;99.90;;;;;;5017796;28;20048;-67
2023/01/13 03:18:34;;;;;;;21.27;4.00;;;7.60;99.90;;;;;;5020113;28;20111;-65
2023/01/13 03:21:07;;;;;;;33.80;4.13;;;7.60;99.90;;;;;;5023859;28;20038;-66
2023/01/13 03:23:49;;;;;;;27.77;4.63;;;7.50;99.90;;;;;;5018327;28;20029;-64
2023/01/13 03:26:35;;;;;;;21.77;4.35;;;7.50;99.90;;;;;;5024054;28;20034;-65
2023/01/13 03:29:09;;;;;;;30.38;4.30;;;7.60;99.90;;;;;;5009945;28;20052;-64
2023/01/13 03:31:44;;;;;;;25.88;4.35;;;7.60;99.90;;;;;;5013753;28;20041;-66
2023/01/13 03:34:14;;;;;;;30.90;4.20;;;7.60;99.90;;;;;;5023397;28;20381;-64
2023/01/13 03:36:43;;;;;;;27.10;4.47;;;7.60;99.90;;;;;;5020802;28;20073;-64
2023/01/13 03:39:12;;;;;;;24.90;3.95;;;7.50;99.90;;;;;;5022965;28;20101;-66
2023/01/13 03:41:44;;;;;;;26.42;4.30;;;7.50;99.90;;;;;;5028192;28;20598;-64
2023/01/13 03:44:21;;;;;;;26.58;4.57;;;7.50;99.90;;;;;;5012305;28;20049;-64
2023/01/13 03:47:21;;;;;;;26.50;5.40;;;7.40;99.90;;;;;;5019339;28;20054;-66
2023/01/13 03:49:57;;;;;;;27.73;4.93;;;7.50;99.90;;;;;;5010613;28;20049;-65
2023/01/13 03:52:49;;;;;;;26.17;5.13;;;7.50;99.90;;;;;;5018928;28;20373;-65
2023/01/13 03:55:21;;;;;;;28.83;4.90;;;7.50;99.90;;;;;;5009813;28;20112;-65
2023/01/13 03:57:56;;;;;;;28.50;5.57;;;7.60;99.90;;;;;;5016896;28;20037;-65
2023/01/13 04:00:27;;;;;;;29.17;4.78;;;7.50;99.90;;;;;;5017540;28;20041;-64
2023/01/13 04:03:06;;;;;;;29.02;4.90;;;7.70;99.90;;;;;;5016195;28;20053;-64
2023/01/13 04:05:36;;;;;;;29.40;5.00;;;7.60;99.90;;;;;;5020528;28;20033;-64
2023/01/13 04:08:10;;;;;;;25.17;4.88;;;7.60;99.90;;;;;;5023757;28;20444;-65
2023/01/13 04:10:43;;;;;;;29.13;4.70;;;7.70;99.90;;;;;;5025677;28;20041;-65
2023/01/13 04:13:18;;;;;;;26.42;4.75;;;7.70;99.90;;;;;;5021904;28;20049;-66
2023/01/13 04:15:45;;;;;;;27.65;4.47;;;7.90;99.90;;;;;;5021223;28;20064;-65
2023/01/13 04:18:13;;;;;;;22.75;4.15;;;7.90;99.90;;;;;;5016852;28;20774;-64
2023/01/13 04:20:41;;;;;;;22.75;4.65;;;7.90;99.90;;;;;;5019595;28;20049;-64
2023/01/13 04:23:08;;;;;;;23.75;3.90;;;8.10;99.90;;;;;;5014177;28;20037;-67
2023/01/13 04:25:33;;;;;;;25.27;4.60;;;7.90;99.90;;;;;;5019583;28;20053;-65
2023/01/13 04:27:59;;;;;;;23.15;4.00;;;7.90;99.90;;;;;;5023956;28;20033;-64
2023/01/13 04:30:25;;;;;;;28.67;4.88;;;7.80;99.90;;;;;;5019698;28;20542;-66
2023/01/13 04:32:50;;;;;;;22.40;4.22;;;7.90;99.90;;;;;;5012952;28;20042;-64
2023/01/13 04:35:16;;;;;;;32.45;5.40;;;7.80;99.90;;;;;;5026534;28;20045;-64
2023/01/13 04:37:41;;;;;;;24.38;4.35;;;7.80;99.90;;;;;;5023027;28;20045;-64
2023/01/13 04:40:07;;;;;;;29.05;6.30;;;7.80;99.90;;;;;;5026371;28;20041;-64
2023/01/13 04:42:33;;;;;;;31.33;4.25;;;7.90;99.90;;;;;;5010217;28;20038;-65
2023/01/13 04:44:58;;;;;;;25.90;4.80;;;7.80;99.90;;;;;;5021495;28;20042;-65
2023/01/13 04:47:24;;;;;;;35.33;5.28;;;7.80;99.90;;;;;;5014837;28;20054;-64
2023/01/13 04:49:49;;;;;;;20.48;4.35;;;7.80;99.90;;;;;;5029775;28;20055;-64
2023/01/13 04:52:15;;;;;;;32.90;4.78;;;7.70;99.90;;;;;;5022503;28;20078;-66
2023/01/13 04:54:40;;;;;;;22.80;4.53;;;7.70;99.90;;;;;;5021397;28;20021;-64
2023/01/13 04:57:06;;;;;;;25.38;4.10;;;7.80;99.90;;;;;;5020886;28;20041;-63
2023/01/13 04:59:32;;;;;;;31.13;4.45;;;7.80;99.90;;;;;;5017214;28;20396;-65
2023/01/13 05:01:57;;;;;;;28.70;4.70;;;7.80;99.90;;;;;;5011723;28;20564;-62
2023/01/13 05:04:23;;;;;;;27.02;4.78;;;7.80;99.90;;;;;;5018275;28;20553;-63
2023/01/13 05:06:48;;;;;;;25.05;4.82;;;7.80;99.90;;;;;;5016521;28;20045;-64
2023/01/13 05:09:14;;;;;;;27.63;4.38;;;7.80;99.90;;;;;;5021933;28;20041;-65
2023/01/13 05:17:17;;;;;;;30.38;4.68;;;7.80;99.90;;;;;;5025710;28;20041;-64
2023/01/13 05:19:42;;;;;;;26.38;3.90;;;7.90;99.90;;;;;;5016652;28;20176;-64
2023/01/13 05:27:36;;;;;;;20.73;4.28;;;7.90;99.90;;;;;;5010645;28;20054;-64
2023/01/13 05:30:02;;;;;;;29.73;5.90;;;8.00;99.90;;;;;;5023766;28;20050;-64
2023/01/13 05:32:28;;;;;;;25.10;4.22;;;7.90;99.90;;;;;;5020360;28;20025;-63
2023/01/13 05:34:54;;;;;;;27.92;4.85;;;7.90;99.90;;;;;;5015681;28;20388;-66
2023/01/13 05:37:20;;;;;;;22.00;3.97;;;7.80;99.90;;;;;;5027648;28;20038;-65
2023/01/13 05:45:14;;;;;;;23.73;4.93;;;7.80;99.90;;;;;;5015356;28;20058;-66
2023/01/13 05:47:40;;;;;;;31.73;4.88;;;7.70;99.90;;;;;;5027534;28;20049;-65
2023/01/13 05:50:05;;;;;;;17.85;3.83;;;7.70;99.90;;;;;;5027501;28;20099;-65
2023/01/13 05:52:31;;;;;;;22.90;3.67;;;7.70;99.90;;;;;;5023301;28;20048;-64
2023/01/13 05:54:56;;;;;;;22.05;3.83;;;7.60;99.90;;;;;;5025378;28;20049;-63
2023/01/13 05:57:22;;;;;;;22.55;4.13;;;7.70;99.90;;;;;;5018342;28;20116;-66
2023/01/13 05:59:48;;;;;;;31.58;4.00;;;7.70;99.90;;;;;;5007134;28;20528;-66
2023/01/13 06:02:13;;;;;;;22.58;4.03;;;7.60;99.90;;;;;;5020373;28;20041;-65
2023/01/13 06:04:39;;;;;;;25.95;3.22;;;7.60;99.90;;;;;;5008710;28;20120;-64
2023/01/13 06:07:04;;;;;;;19.13;3.42;;;7.70;99.90;;;;;;5011380;28;20045;-64
2023/01/13 06:09:30;;;;;;;20.15;3.40;;;7.60;99.90;;;;;;5015282;28;20073;-63
2023/01/13 06:11:55;;;;;;;14.98;3.67;;;7.60;99.90;;;;;;5017523;28;20041;-64
2023/01/13 06:14:21;;;;;;;23.65;3.78;;;7.60;99.90;;;;;;5023570;28;20107;-66
2023/01/13 06:16:47;;;;;;;26.27;3.90;;;7.70;99.90;;;;;;5012556;28;20037;-64
2023/01/13 06:19:13;;;;;;;16.45;3.08;;;7.70;99.90;;;;;;5018421;28;20052;-65
2023/01/13 06:21:39;;;;;;;36.08;3.78;;;7.70;99.90;;;;;;5008409;28;20375;-64
2023/01/13 06:24:06;;;;;;;22.52;4.15;;;7.90;99.90;;;;;;5020443;28;20124;-65
2023/01/13 06:26:39;;;;;;;16.92;3.38;;;7.90;99.90;;;;;;5012203;28;20056;-63
2023/01/13 06:29:05;;;;;;;24.70;3.42;;;7.90;99.90;;;;;;5003917;28;20081;-66
2023/01/13 06:31:34;;;;;;;20.17;3.22;;;7.90;99.90;;;;;;5021266;28;20052;-64
2023/01/13 06:34:06;;;;;;;14.65;3.35;;;8.00;99.90;;;;;;5028995;28;20374;-67
2023/01/13 06:36:38;;;;;;;21.83;3.72;;;8.00;99.90;;;;;;5024423;28;20037;-65
2023/01/13 06:39:04;;;;;;;19.00;3.45;;;8.00;99.90;;;;;;5028822;28;20435;-65
2023/01/13 06:44:18;;;;;;;17.83;3.53;;;8.00;99.90;;;;;;5024853;28;20076;-63
2023/01/13 06:46:44;;;;;;;18.05;3.72;;;8.00;99.90;;;;;;5027689;28;20508;-63
2023/01/13 06:49:09;;;;;;;15.63;3.63;;;8.00;99.90;;;;;;5012675;28;20131;-65
2023/01/13 06:51:35;;;;;;;16.10;3.47;;;8.10;99.90;;;;;;5024248;28;20041;-65
2023/01/13 06:54:00;;;;;;;16.27;3.25;;;8.10;99.90;;;;;;5030139;28;20045;-63
2023/01/13 06:56:26;;;;;;;18.27;3.70;;;8.00;99.90;;;;;;5023939;28;20461;-64
2023/01/13 06:58:52;;;;;;;17.65;4.00;;;8.00;99.90;;;;;;5022941;28;20497;-64
2023/01/13 07:01:17;;;;;;;12.68;3.50;;;8.00;99.90;;;;;;4998054;28;20034;-63
2023/01/13 07:03:43;;;;;;;17.45;3.33;;;8.00;99.90;;;;;;5019776;28;20042;-64
2023/01/13 07:06:08;;;;;;;19.63;3.30;;;7.90;99.90;;;;;;5026783;28;20051;-65
2023/01/13 07:08:34;;;;;;;13.52;2.90;;;7.90;99.90;;;;;;5028003;28;20053;-63
2023/01/13 07:11:01;;;;;;;13.40;3.60;;;7.80;99.90;;;;;;5031739;28;20033;-64
2023/01/13 07:16:10;;;;;;;15.43;3.78;;;7.80;99.90;;;;;;5020071;28;20054;-64
2023/01/13 07:18:36;;;;;;;15.40;3.10;;;7.80;99.90;;;;;;5028262;28;20045;-64
2023/01/13 07:21:09;;;;;;;18.98;2.75;;;7.70;99.90;;;;;;5032902;28;20033;-65
2023/01/13 07:23:38;;;;;;;20.08;3.80;;;7.60;99.90;;;;;;5027374;28;20056;-65
2023/01/13 07:26:05;;;;;;;16.98;3.08;;;7.60;99.90;;;;;;5019142;28;20060;-64
2023/01/13 07:28:31;;;;;;;16.95;2.88;;;7.60;99.90;;;;;;5031358;28;20049;-65
2023/01/13 07:30:57;;;;;;;11.93;2.35;;;7.60;99.90;;;;;;5032156;28;20486;-65
2023/01/13 07:33:23;;;;;;;10.75;2.20;;;7.60;99.90;;;;;;5012940;28;20128;-63
2023/01/13 07:36:04;;;;;;;18.80;2.78;;;7.60;99.90;;;;;;5018147;28;20052;-64
2023/01/13 07:38:30;;;;;;;21.60;2.97;;;7.60;99.90;;;;;;5022918;28;20041;-64
2023/01/13 07:40:56;;;;;;;12.18;2.75;;;7.60;99.90;;;;;;5011723;28;20045;-63
2023/01/13 07:43:30;;;;;;;20.02;3.00;;;7.40;99.90;;;;;;5014288;28;20041;-66
2023/01/13 07:46:01;;;;;;;12.43;2.95;;;7.30;99.90;;;;;;5019611;28;22386;-66
2023/01/13 07:48:28;;;;;;;13.57;2.30;;;7.10;99.90;;;;;;5037359;28;20042;-64
2023/01/13 07:50:54;;;;;;;13.60;2.75;;;7.00;99.90;;;;;;5029616;28;20443;-64
2023/01/13 07:53:21;;;;;;;18.33;3.08;;;6.90;99.90;;;;;;5031565;28;20378;-67
2023/01/13 07:55:47;;;;;;;14.63;2.92;;;6.90;99.90;;;;;;5017437;28;20160;-66
2023/01/13 07:58:12;;;;;;;17.70;2.67;;;6.80;99.90;;;;;;5001468;28;20521;-67
2023/01/13 08:00:38;;;;;;;19.80;3.47;;;6.70;99.90;;;;;;5021893;28;20194;-64
2023/01/13 08:03:04;;;;;;;16.73;2.80;;;6.70;99.90;;;;;;5015052;28;20034;-64
2023/01/13 08:05:29;;;;;;;23.52;3.95;;;6.70;99.90;;;;;;5012478;28;20080;-64
2023/01/13 08:07:55;;;;;;;12.48;2.72;;;6.70;99.90;;;;;;5019021;28;20041;-64
2023/01/13 08:10:21;;;;;;;19.52;3.10;;;6.60;99.90;;;;;;5029872;28;20152;-64
2023/01/13 08:15:33;;;;;;;14.90;2.72;;;6.60;99.90;;;;;;5028913;28;20136;-63
2023/01/13 08:17:59;;;;;;;17.33;2.80;;;6.60;99.90;;;;;;5026338;28;20044;-64
2023/01/13 08:20:25;;;;;;;16.52;3.38;;;6.70;99.90;;;;;;5019190;28;20404;-64
2023/01/13 08:22:55;;;;;;;18.23;2.90;;;6.70;99.90;;;;;;5016579;28;20045;-64
2023/01/13 08:25:21;;;;;;;16.38;2.95;;;6.70;99.90;;;;;;5020004;28;20485;-64
2023/01/13 08:27:48;;;;;;;14.18;3.33;;;6.70;99.90;;;;;;5017703;28;20048;-66
2023/01/13 08:30:14;;;;;;;16.88;2.95;;;6.80;99.90;;;;;;5025796;28;20045;-64
2023/01/13 08:32:42;;;;;;;17.85;2.70;;;6.80;99.90;;;;;;5028397;28;20393;-63
2023/01/13 08:35:08;;;;;;;20.45;4.07;;;6.80;99.90;;;;;;5018096;28;20347;-63
2023/01/13 08:37:33;;;;;;;14.60;3.40;;;6.80;99.90;;;;;;5029448;28;20095;-65
2023/01/13 08:39:59;;;;;;;22.05;3.35;;;6.80;99.90;;;;;;5030152;28;20164;-64
2023/01/13 08:42:25;;;;;;;18.90;2.83;;;6.80;99.90;;;;;;5023877;28;20041;-63
2023/01/13 08:44:52;;;;;;;15.07;3.33;;;6.80;99.90;;;;;;5020803;28;20045;-63
2023/01/13 08:47:17;;;;;;;20.00;3.67;;;6.80;99.90;;;;;;5014410;28;20077;-65
2023/01/13 08:49:43;;;;;;;18.55;2.78;;;6.90;99.90;;;;;;5029355;28;20812;-63
2023/01/13 08:52:08;;;;;;;21.85;3.45;;;6.80;99.90;;;;;;5025287;28;20031;-63
2023/01/13 08:54:36;;;;;;;19.35;4.10;;;6.80;99.90;;;;;;5016462;28;20125;-63
2023/01/13 08:57:02;;;;;;;24.38;3.58;;;6.90;99.90;;;;;;5024590;28;20065;-66
2023/01/13 08:59:27;;;;;;;23.80;3.38;;;6.90;99.90;;;;;;5022557;28;20037;-65
2023/01/13 09:01:53;;;;;;;20.38;3.22;;;6.90;99.90;;;;;;5022961;28;20041;-64
2023/01/13 09:04:21;;;;;;;17.38;2.70;;;7.00;99.90;;;;;;5021220;28;20038;-63
2023/01/13 09:06:48;;;;;;;25.05;4.60;;;7.00;99.90;;;;;;5024546;28;20045;-65
2023/01/13 09:09:14;;;;;;;20.13;3.60;;;7.00;99.90;;;;;;5024429;28;20045;-64
2023/01/13 09:14:30;;;;;;;18.13;3.05;;;7.10;99.90;;;;;;5018652;28;20405;-63
2023/01/13 09:16:56;;;;;;;15.25;2.95;;;7.10;99.90;;;;;;5025924;28;20045;-64
2023/01/13 09:19:21;;;;;;;23.60;3.28;;;7.20;99.90;;;;;;5031851;28;20117;-62
2023/01/13 09:21:47;;;;;;;25.67;4.43;;;7.20;99.90;;;;;;5020143;28;20041;-65
2023/01/13 09:24:13;;;;;;;15.10;3.17;;;7.20;99.90;;;;;;5019800;28;20038;-65
2023/01/13 09:26:38;;;;;;;19.13;3.15;;;7.20;99.90;;;;;;5019053;28;20049;-65
2023/01/13 09:29:04;;;;;;;19.08;3.03;;;7.10;99.90;;;;;;5012255;28;20045;-65
2023/01/13 09:31:33;;;;;;;27.17;4.13;;;7.00;99.90;;;;;;5020650;28;20065;-64
2023/01/13 09:36:44;;;;;;;21.63;2.75;;;6.80;99.90;;;;;;5010583;28;20053;-64
2023/01/13 09:39:10;;;;;;;18.15;3.90;;;6.80;99.90;;;;;;5017479;28;20037;-66
2023/01/13 09:44:38;;;;;;;26.83;3.88;;;6.70;99.90;;;;;;5014696;28;20505;-65
2023/01/13 09:47:10;;;;;;;23.27;3.67;;;6.60;99.90;;;;;;5017512;28;20057;-65
2023/01/13 09:49:38;;;;;;;23.60;3.47;;;6.60;99.90;;;;;;5018204;28;20054;-66
2023/01/13 09:52:20;;;;;;;18.15;3.60;;;6.60;99.90;;;;;;5021220;28;20046;-66
2023/01/13 09:55:00;;;;;;;21.52;4.70;;;6.60;99.90;;;;;;5015603;28;20048;-64
2023/01/13 09:57:28;;;;;;;23.02;3.50;;;6.60;99.90;;;;;;5014156;28;20041;-63
2023/01/13 09:59:56;;;;;;;24.70;3.85;;;6.70;99.90;;;;;;5010473;28;20038;-64
2023/01/13 10:02:36;;;;;;;26.90;4.43;;;6.60;99.90;;;;;;5012490;28;20685;-65
2023/01/13 10:05:32;;;;;;;29.48;4.70;;;6.70;99.90;;;;;;5018545;28;20045;-63
2023/01/13 10:08:16;;;;;;;22.05;3.35;;;6.60;99.90;;;;;;5014979;28;20042;-65
2023/01/13 10:10:50;;;;;;;20.25;3.58;;;6.70;99.90;;;;;;5026920;28;20080;-65
2023/01/13 10:13:25;;;;;;;17.83;2.83;;;6.70;99.90;;;;;;5018907;28;20657;-64
2023/01/13 10:16:17;;;;;;;29.20;4.45;;;6.70;99.90;;;;;;5021164;28;20037;-66
2023/01/13 10:18:55;;;;;;;21.75;3.25;;;6.70;99.90;;;;;;5026147;28;20041;-64
2023/01/13 10:21:51;;;;;;;18.50;3.90;;;6.70;99.90;;;;;;5034620;28;20038;-67
2023/01/13 10:24:50;;;;;;;29.92;3.67;;;6.70;99.90;;;;;;5023121;28;20041;-65
2023/01/13 10:27:28;;;;;;;23.40;3.70;;;6.80;99.90;;;;;;5025660;28;20050;-65
2023/01/13 10:29:54;;;;;;;29.50;3.95;;;6.70;99.90;;;;;;5022175;28;20037;-65
2023/01/13 10:32:19;;;;;;;24.40;3.70;;;6.40;99.90;;;;;;5018531;28;20099;-65
2023/01/13 10:34:50;;;;;;;21.77;4.22;;;6.50;99.90;;;;;;5006545;28;20477;-65
2023/01/13 10:37:27;;;;;;;30.25;4.45;;;6.50;99.90;;;;;;5031232;28;20559;-65
2023/01/13 10:40:00;;;;;;;42.85;5.55;;;6.90;99.90;;;;;;5018885;28;20091;-65
2023/01/13 10:42:26;;;;;;;28.15;4.18;;;6.40;99.90;;;;;;5027389;28;20033;-64
2023/01/13 10:44:57;;;;;;;29.65;5.00;;;6.90;99.90;;;;;;5031496;28;20044;-64
2023/01/13 10:47:32;;;;;;;24.08;3.80;;;6.60;99.90;;;;;;5032329;28;20049;-64
2023/01/13 10:50:05;;;;;;;22.50;3.90;;;6.50;99.90;;;;;;5015810;28;20076;-64
2023/01/13 10:52:34;;;;;;;29.77;4.32;;;6.40;99.90;;;;;;5019582;28;20045;-64
2023/01/13 10:55:00;;;;;;;24.75;3.50;;;6.40;99.90;;;;;;5027550;28;20453;-65
2023/01/13 10:57:27;;;;;;;24.83;4.45;;;7.10;99.90;;;;;;5026486;28;20038;-65
2023/01/13 10:59:53;;;;;;;28.35;3.95;;;7.10;99.90;;;;;;5021674;28;20580;-67
2023/01/13 11:02:34;;;;;;;32.42;4.40;;;7.20;99.90;;;;;;5015216;28;20489;-66
2023/01/13 11:05:23;;;;;;;25.38;3.97;;;6.90;99.90;;;;;;5025981;28;20052;-66
2023/01/13 11:07:53;;;;;;;25.25;4.38;;;6.80;99.90;;;;;;5013461;28;20041;-65
2023/01/13 11:10:30;;;;;;;27.30;4.05;;;6.90;99.90;;;;;;5015688;28;20088;-66
2023/01/13 11:13:10;;;;;;;27.48;4.53;;;6.70;99.90;;;;;;5032768;28;20099;-65
2023/01/13 11:16:03;;;;;;;28.42;4.47;;;7.20;99.90;;;;;;5020557;28;20038;-66
2023/01/13 11:19:00;;;;;;;30.27;4.53;;;6.40;99.90;;;;;;5023222;28;20081;-64
2023/01/13 11:21:53;;;;;;;33.13;5.50;;;6.60;99.90;;;;;;5011679;28;20042;-64
2023/01/13 11:24:36;;;;;;;25.80;4.55;;;7.10;99.90;;;;;;4997079;28;20085;-67
2023/01/13 11:27:16;;;;;;;29.88;4.65;;;6.60;99.90;;;;;;5015908;28;20067;-65
2023/01/13 11:29:57;;;;;;;37.60;5.50;;;6.50;99.90;;;;;;5016966;28;20156;-65
2023/01/13 11:32:23;;;;;;;31.40;4.88;;;6.50;99.90;;;;;;5024789;28;20073;-65
2023/01/13 11:34:58;;;;;;;32.20;5.07;;;7.30;99.90;;;;;;5021260;28;20339;-65
2023/01/13 11:37:27;;;;;;;25.88;4.22;;;7.10;99.90;;;;;;5024578;28;20092;-66
2023/01/13 11:40:17;;;;;;;23.88;3.50;;;6.80;99.90;;;;;;5027534;28;20041;-65
2023/01/13 11:42:53;;;;;;;28.08;4.32;;;7.20;99.90;;;;;;5017434;28;20140;-65
2023/01/13 11:45:40;;;;;;;36.13;4.57;;;7.30;99.90;;;;;;5017482;28;20046;-64
2023/01/13 11:48:14;;;;;;;26.83;4.05;;;6.80;99.90;;;;;;5027531;28;20152;-66
2023/01/13 11:50:58;;;;;;;24.27;3.67;;;6.50;99.90;;;;;;5025720;28;20065;-65
2023/01/13 11:53:52;;;;;;;20.40;3.35;;;7.20;99.90;;;;;;5028069;28;20111;-65
2023/01/13 11:56:37;;;;;;;22.88;4.13;;;6.70;99.90;;;;;;5015437;28;20168;-63
2023/01/13 11:59:46;;;;;;;31.73;4.20;;;6.70;99.90;;;;;;5023000;28;20073;-66
2023/01/13 12:02:27;;;;;;;31.40;4.17;;;6.80;99.90;;;;;;4972034;28;20053;-64
2023/01/13 12:05:07;;;;;;;21.13;3.95;;;6.70;99.90;;;;;;5026363;28;20300;-63
2023/01/13 12:08:04;;;;;;;28.90;3.45;;;7.40;99.90;;;;;;5029724;28;20057;-64
2023/01/13 12:11:08;;;;;;;21.95;4.18;;;7.40;99.90;;;;;;5021414;28;20045;-63
2023/01/13 12:13:51;;;;;;;32.45;4.45;;;6.90;99.90;;;;;;5029715;28;20526;-64
2023/01/13 12:16:24;;;;;;;20.67;3.15;;;6.80;99.90;;;;;;5020891;28;20559;-64
2023/01/13 12:19:03;;;;;;;17.45;3.08;;;7.40;99.90;;;;;;5028570;28;20044;-64
2023/01/13 12:21:58;;;;;;;18.40;3.70;;;7.40;99.90;;;;;;5018860;28;20481;-63
2023/01/13 12:24:43;;;;;;;15.73;3.22;;;6.90;99.90;;;;;;5009964;28;20424;-65
2023/01/13 12:27:20;;;;;;;16.55;3.38;;;6.80;99.90;;;;;;5016457;28;20037;-62
2023/01/13 12:29:49;;;;;;;22.58;3.78;;;6.60;99.90;;;;;;5029529;28;20037;-67
2023/01/13 12:32:19;;;;;;;28.00;4.07;;;7.20;99.90;;;;;;5028764;28;20048;-64
2023/01/13 12:35:10;;;;;;;18.02;3.95;;;7.10;99.90;;;;;;5012404;28;20054;-65
2023/01/13 12:37:44;;;;;;;19.25;3.28;;;7.40;99.90;;;;;;5020782;28;20041;-65
2023/01/13 12:40:24;;;;;;;19.70;3.25;;;7.40;99.90;;;;;;5022522;28;20044;-64
2023/01/13 12:45:47;;;;;;;21.27;3.20;;;7.30;99.90;;;;;;5017081;28;20061;-65
2023/01/13 12:48:45;;;;;;;13.50;2.70;;;6.80;99.90;;;;;;5015062;28;20100;-65
2023/01/13 12:51:22;;;;;;;19.95;3.60;;;7.20;99.90;;;;;;5029586;28;20038;-65
2023/01/13 12:53:47;;;;;;;15.85;3.05;;;6.90;99.90;;;;;;5019669;28;20100;-64
2023/01/13 12:56:40;;;;;;;14.35;3.15;;;7.20;99.90;;;;;;5016470;28;20033;-65
2023/01/13 12:59:15;;;;;;;13.93;2.90;;;6.80;99.90;;;;;;5016902;28;20041;-67
2023/01/13 13:01:42;;;;;;;12.65;2.90;;;7.00;99.90;;;;;;5001954;28;20045;-63
2023/01/13 13:04:12;;;;;;;17.45;3.22;;;7.00;99.90;;;;;;5027119;28;20045;-63
2023/01/13 13:06:41;;;;;;;21.87;3.77;;;7.40;99.90;;;;;;5020507;28;20090;-66
2023/01/13 13:09:25;;;;;;;23.60;3.87;;;6.90;99.90;;;;;;5030501;28;20485;-64
2023/01/13 13:14:54;;;;;;;12.23;2.70;;;6.90;99.90;;;;;;5019767;28;20137;-67
2023/01/13 13:17:25;;;;;;;10.65;2.63;;;7.40;99.90;;;;;;5014870;28;20080;-66
2023/01/13 13:19:51;;;;;;;14.50;2.85;;;7.40;99.90;;;;;;5012851;28;20042;-65
2023/01/13 13:22:21;;;;;;;17.27;2.92;;;7.40;99.90;;;;;;5018365;28;20045;-66
2023/01/13 13:24:58;;;;;;;17.30;2.88;;;6.80;99.90;;;;;;5018678;28;22099;-65
2023/01/13 13:27:36;;;;;;;21.92;3.15;;;6.80;99.90;;;;;;5016358;28;20095;-66
2023/01/13 13:30:44;;;;;;;11.15;2.67;;;6.80;99.90;;;;;;5007784;28;20049;-64
2023/01/13 13:33:28;;;;;;;13.40;3.00;;;7.30;99.90;;;;;;4964170;28;20038;-67
2023/01/13 13:36:05;;;;;;;11.65;2.80;;;6.90;99.90;;;;;;4985661;28;20090;-65
2023/01/13 13:47:21;;;;;;;15.02;2.33;;;6.90;99.90;;;;;;5030018;28;20061;-67
2023/01/13 13:49:52;;;;;;;14.32;3.00;;;6.90;99.90;;;;;;5030366;28;20056;-66
2023/01/13 13:52:28;;;;;;;11.75;2.38;;;7.20;99.90;;;;;;5026133;28;20116;-66
2023/01/13 13:55:03;;;;;;;14.00;3.10;;;7.40;99.90;;;;;;5023591;28;20054;-67
2023/01/13 13:57:33;;;;;;;14.55;2.08;;;7.40;99.90;;;;;;5028395;28;20052;-68
2023/01/13 13:59:59;;;;;;;11.82;2.35;;;6.90;99.90;;;;;;5029057;28;20080;-65
2023/01/13 14:02:33;;;;;;;9.25;1.77;;;6.90;99.90;;;;;;5001173;28;20174;-66
2023/01/13 14:05:16;;;;;;;11.30;2.25;;;7.00;99.90;;;;;;5031794;28;20045;-64
2023/01/13 14:07:44;;;;;;;14.30;2.47;;;7.10;99.90;;;;;;5016492;28;20041;-65